createdAt,value
2022-09-01T00:00:13.476Z,15.75
2022-09-01T00:02:43.213Z,15.57
2022-09-01T00:05:11.088Z,14.02
2022-09-01T00:07:38.577Z,13.55
2022-09-01T00:10:08.145Z,13.45
2022-09-01T00:12:35.733Z,14.70
2022-09-01T00:15:05.668Z,13.13
2022-09-01T00:17:34.412Z,14.23
2022-09-01T00:20:02.214Z,15.05
2022-09-01T00:22:29.837Z,16.15
2022-09-01T00:24:57.300Z,14.73
2022-09-01T00:27:27.982Z,11.98
2022-09-01T00:30:00.108Z,12.68
2022-09-01T00:32:28.561Z,12.93
2022-09-01T00:34:55.990Z,14.10
2022-09-01T00:37:23.673Z,13.30
2022-09-01T00:39:51.173Z,14.32
2022-09-01T00:42:18.890Z,13.32
2022-09-01T00:44:46.475Z,15.98
2022-09-01T00:47:15.048Z,17.00
2022-09-01T00:49:47.227Z,14.10
2022-09-01T00:52:38.766Z,27.50
2022-09-01T00:55:34.799Z,18.70
2022-09-01T00:58:03.605Z,16.70
2022-09-01T01:00:33.366Z,20.45
2022-09-01T01:03:00.923Z,17.60
2022-09-01T01:05:36.555Z,17.67
2022-09-01T01:08:04.694Z,17.05
2022-09-01T01:10:33.516Z,16.45
2022-09-01T01:13:04.684Z,21.40
2022-09-01T01:17:59.549Z,18.85
2022-09-01T01:20:50.594Z,19.90
2022-09-01T01:23:31.039Z,17.75
2022-09-01T01:26:00.290Z,17.02
2022-09-01T01:28:36.006Z,26.23
2022-09-01T01:31:13.500Z,17.50
2022-09-01T01:33:44.821Z,23.67
2022-09-01T01:36:32.574Z,19.13
2022-09-01T01:39:07.585Z,24.50
2022-09-01T01:41:42.169Z,20.08
2022-09-01T01:44:13.728Z,22.00
2022-09-01T01:46:46.096Z,29.95
2022-09-01T01:49:20.713Z,22.00
2022-09-01T01:51:56.259Z,19.27
2022-09-01T01:54:32.214Z,21.02
2022-09-01T01:57:00.768Z,22.15
2022-09-01T01:59:29.942Z,23.10
2022-09-01T02:01:58.383Z,31.52
2022-09-01T02:04:26.306Z,24.92
2022-09-01T02:06:55.898Z,23.70
2022-09-01T02:09:23.527Z,19.65
2022-09-01T02:11:55.495Z,19.85
2022-09-01T02:14:23.591Z,18.80
2022-09-01T02:16:51.113Z,21.42
2022-09-01T02:19:21.118Z,22.90
2022-09-01T02:21:54.270Z,29.55
2022-09-01T02:24:24.049Z,24.55
2022-09-01T02:26:51.552Z,19.58
2022-09-01T02:29:25.131Z,26.10
2022-09-01T02:31:54.703Z,21.38
2022-09-01T02:34:24.203Z,20.70
2022-09-01T02:36:54.726Z,25.20
2022-09-01T02:39:28.170Z,25.58
2022-09-01T02:44:29.185Z,20.08
2022-09-01T02:46:56.952Z,21.48
2022-09-01T02:49:28.634Z,22.33
2022-09-01T02:52:01.740Z,20.77
2022-09-01T02:54:32.934Z,21.52
2022-09-01T02:57:01.402Z,22.48
2022-09-01T02:59:30.445Z,19.10
2022-09-01T03:02:09.757Z,37.90
2022-09-01T03:04:38.938Z,20.27
2022-09-01T03:07:07.116Z,22.02
2022-09-01T03:09:50.231Z,38.83
2022-09-01T03:12:18.350Z,25.13
2022-09-01T03:14:45.832Z,26.00
2022-09-01T03:17:14.209Z,22.40
2022-09-01T03:19:43.793Z,22.90
2022-09-01T03:22:12.437Z,24.88
2022-09-01T03:24:40.407Z,24.33
2022-09-01T03:27:08.936Z,26.35
2022-09-01T03:29:38.265Z,36.90
2022-09-01T03:32:06.471Z,27.90
2022-09-01T03:34:36.892Z,28.92
2022-09-01T03:37:07.484Z,30.60
2022-09-01T03:39:35.413Z,31.33
2022-09-01T03:42:03.079Z,27.80
2022-09-01T03:44:30.686Z,26.23
2022-09-01T03:46:58.513Z,26.52
2022-09-01T03:49:28.588Z,26.45
2022-09-01T03:51:58.789Z,32.72
2022-09-01T03:54:28.391Z,26.27
2022-09-01T03:57:00.009Z,29.73
2022-09-01T03:59:28.514Z,27.30
2022-09-01T04:01:57.567Z,29.08
2022-09-01T04:04:25.968Z,34.35
2022-09-01T04:06:53.502Z,29.77
2022-09-01T04:09:20.992Z,32.20
2022-09-01T04:11:48.590Z,29.98
2022-09-01T04:14:17.377Z,32.78
2022-09-01T04:17:05.727Z,36.60
2022-09-01T04:19:37.298Z,23.63
2022-09-01T04:22:05.863Z,23.63
2022-09-01T04:24:45.057Z,22.17
2022-09-01T04:27:14.034Z,22.15
2022-09-01T04:29:42.416Z,23.70
2022-09-01T04:32:12.819Z,30.60
2022-09-01T04:34:43.223Z,33.10
2022-09-01T04:37:18.192Z,32.35
2022-09-01T04:39:55.824Z,33.40
2022-09-01T04:42:29.182Z,22.80
2022-09-01T04:45:01.982Z,24.90
2022-09-01T04:47:36.144Z,26.75
2022-09-01T04:50:14.398Z,27.38
2022-09-01T04:52:47.734Z,28.10
2022-09-01T04:55:30.154Z,27.08
2022-09-01T04:58:00.779Z,27.20
2022-09-01T05:00:32.342Z,27.67
2022-09-01T05:03:04.671Z,24.55
2022-09-01T05:06:14.176Z,33.78
2022-09-01T05:08:46.567Z,29.20
2022-09-01T05:11:26.130Z,25.38
2022-09-01T05:14:03.028Z,29.42
2022-09-01T05:16:32.576Z,26.17
2022-09-01T05:19:01.576Z,26.52
2022-09-01T05:21:35.048Z,38.47
2022-09-01T05:24:03.875Z,46.30
2022-09-01T05:26:34.693Z,57.53
2022-09-01T05:29:05.209Z,42.83
2022-09-01T05:31:37.781Z,31.58
2022-09-01T05:34:10.615Z,31.67
2022-09-01T05:36:46.291Z,38.30
2022-09-01T05:39:14.843Z,34.60
2022-09-01T05:41:43.072Z,39.03
2022-09-01T05:44:14.151Z,34.03
2022-09-01T05:46:44.559Z,30.13
2022-09-01T05:49:16.273Z,32.50
2022-09-01T05:51:50.861Z,32.88
2022-09-01T05:54:27.355Z,29.88
2022-09-01T05:57:12.644Z,26.48
2022-09-01T05:59:53.927Z,24.73
2022-09-01T06:02:26.243Z,24.10
2022-09-01T06:05:07.609Z,29.13
2022-09-01T06:07:41.007Z,37.67
2022-09-01T06:10:09.358Z,25.60
2022-09-01T06:12:37.050Z,21.60
2022-09-01T06:15:07.235Z,33.17
2022-09-01T06:17:36.029Z,21.23
2022-09-01T06:20:10.683Z,27.40
2022-09-01T06:22:41.169Z,21.05
2022-09-01T06:25:09.698Z,18.90
2022-09-01T06:27:42.659Z,22.13
2022-09-01T06:30:15.409Z,19.30
2022-09-01T06:32:54.252Z,19.13
2022-09-01T06:35:29.904Z,21.77
2022-09-01T06:38:00.056Z,20.40
2022-09-01T06:40:43.402Z,17.75
2022-09-01T06:43:17.355Z,18.88
2022-09-01T06:45:54.409Z,18.08
2022-09-01T06:48:24.256Z,21.80
2022-09-01T06:51:20.909Z,30.20
2022-09-01T06:53:56.753Z,25.65
2022-09-01T06:56:34.010Z,19.23
2022-09-01T06:59:10.129Z,17.48
2022-09-01T07:01:39.959Z,19.07
2022-09-01T07:07:54.036Z,17.45
2022-09-01T07:10:25.728Z,19.63
2022-09-01T07:13:09.016Z,18.52
2022-09-01T07:18:33.247Z,20.02
2022-09-01T07:24:13.444Z,23.98
2022-09-01T07:27:07.494Z,19.67
2022-09-01T07:29:35.798Z,15.68
2022-09-01T07:34:52.428Z,15.90
2022-09-01T07:41:44.194Z,20.88
2022-09-01T07:42:30.320Z,21.02
2022-09-01T07:43:28.390Z,12.77
2022-09-01T07:46:36.797Z,14.50
2022-09-01T07:49:29.231Z,18.23
2022-09-01T07:51:44.184Z,29.50
2022-09-01T07:54:13.872Z,35.97
2022-09-01T07:56:41.653Z,17.60
2022-09-01T07:59:15.264Z,14.77
2022-09-01T08:01:54.877Z,11.38
2022-09-01T08:04:23.258Z,13.63
2022-09-01T08:06:55.852Z,16.00
2022-09-01T08:09:37.824Z,19.08
2022-09-01T08:12:08.761Z,15.68
2022-09-01T08:17:58.367Z,15.05
2022-09-01T08:20:35.153Z,10.93
2022-09-01T08:23:12.619Z,16.27
2022-09-01T08:25:42.430Z,11.82
2022-09-01T08:28:11.197Z,12.32
2022-09-01T08:30:42.152Z,12.73
2022-09-01T08:33:20.468Z,9.80
2022-09-01T08:35:49.693Z,10.55
2022-09-01T08:38:19.281Z,15.23
2022-09-01T08:40:57.000Z,9.25
2022-09-01T08:44:06.396Z,9.60
2022-09-01T08:46:38.930Z,7.22
2022-09-01T08:49:42.490Z,10.90
2022-09-01T08:52:31.798Z,5.40
2022-09-01T08:55:08.096Z,7.70
2022-09-01T08:57:40.077Z,5.32
2022-09-01T09:03:17.831Z,3.80
2022-09-01T09:06:07.774Z,8.05
2022-09-01T09:09:05.173Z,3.53
2022-09-01T09:12:20.749Z,5.93
2022-09-01T09:15:03.414Z,14.07
2022-09-01T09:17:39.739Z,5.40
2022-09-01T09:20:09.190Z,3.30
2022-09-01T09:22:37.476Z,3.20
2022-09-01T09:25:24.391Z,6.15
2022-09-01T09:28:01.345Z,5.60
2022-09-01T09:30:31.519Z,2.22
2022-09-01T09:35:54.429Z,3.72
2022-09-01T09:38:29.120Z,7.57
2022-09-01T09:41:17.732Z,13.18
2022-09-01T09:43:58.991Z,9.13
2022-09-01T09:46:33.721Z,10.88
2022-09-01T09:49:36.659Z,9.57
2022-09-01T09:52:08.802Z,7.93
2022-09-01T09:54:38.279Z,5.78
2022-09-01T09:57:08.683Z,10.63
2022-09-01T09:59:58.653Z,9.17
2022-09-01T10:05:21.940Z,7.55
2022-09-01T10:07:51.300Z,10.82
2022-09-01T10:10:57.785Z,9.63
2022-09-01T10:13:33.018Z,8.52
2022-09-01T10:16:05.917Z,11.52
2022-09-01T10:18:39.814Z,7.32
2022-09-01T10:21:15.457Z,4.65
2022-09-01T10:23:44.951Z,4.65
2022-09-01T10:26:18.877Z,5.93
2022-09-01T10:28:52.590Z,3.22
2022-09-01T10:31:22.104Z,4.63
2022-09-01T10:33:50.906Z,4.22
2022-09-01T10:36:19.990Z,4.28
2022-09-01T10:38:53.687Z,3.78
2022-09-01T10:41:43.883Z,4.75
2022-09-01T10:44:20.279Z,4.10
2022-09-01T10:46:50.788Z,2.58
2022-09-01T10:49:38.632Z,1.75
2022-09-01T10:52:13.073Z,6.70
2022-09-01T10:54:51.096Z,1.80
2022-09-01T10:57:19.007Z,6.03
2022-09-01T10:59:56.439Z,5.75
2022-09-01T11:02:29.524Z,4.45
2022-09-01T11:05:02.660Z,5.70
2022-09-01T11:08:00.390Z,3.67
2022-09-01T11:10:52.027Z,6.80
2022-09-01T11:13:28.668Z,5.20
2022-09-01T11:16:00.324Z,3.50
2022-09-01T11:18:31.423Z,4.57
2022-09-01T11:21:26.784Z,2.05
2022-09-01T11:24:32.870Z,4.03
2022-09-01T11:27:00.471Z,9.55
2022-09-01T11:29:55.899Z,1.88
2022-09-01T11:32:31.526Z,2.13
2022-09-01T11:35:02.524Z,1.40
2022-09-01T11:37:31.022Z,1.50
2022-09-01T11:40:02.235Z,2.22
2022-09-01T11:42:45.866Z,0.63
2022-09-01T11:45:21.707Z,0.57
2022-09-01T11:47:54.957Z,0.88
2022-09-01T11:50:26.931Z,3.72
2022-09-01T11:53:10.329Z,2.58
2022-09-01T11:55:41.047Z,1.08
2022-09-01T11:58:34.441Z,0.63
2022-09-01T12:01:33.508Z,0.68
2022-09-01T12:04:22.327Z,9.15
2022-09-01T12:07:12.484Z,1.15
2022-09-01T12:09:44.130Z,3.60
2022-09-01T12:12:29.444Z,5.13
2022-09-01T12:15:05.758Z,2.25
2022-09-01T12:17:35.685Z,2.25
2022-09-01T12:20:30.045Z,6.63
2022-09-01T12:23:00.004Z,3.67
2022-09-01T12:25:31.933Z,0.85
2022-09-01T12:30:28.786Z,2.22
2022-09-01T12:35:46.292Z,5.90
2022-09-01T12:38:21.203Z,1.02
2022-09-01T12:40:54.787Z,2.35
2022-09-01T12:43:40.751Z,2.47
2022-09-01T12:46:10.846Z,2.67
2022-09-01T12:48:40.824Z,3.30
2022-09-01T12:51:25.480Z,6.63
2022-09-01T12:53:58.715Z,7.88
2022-09-01T12:59:25.523Z,1.88
2022-09-01T13:02:49.389Z,6.68
2022-09-01T13:05:30.639Z,2.63
2022-09-01T13:08:02.908Z,3.60
2022-09-01T13:10:38.107Z,3.97
2022-09-01T13:13:07.265Z,3.63
2022-09-01T13:15:36.729Z,3.38
2022-09-01T13:18:04.288Z,6.25
2022-09-01T13:20:31.876Z,1.67
2022-09-01T13:22:59.665Z,1.55
2022-09-01T13:25:27.244Z,0.82
2022-09-01T13:27:55.014Z,0.90
2022-09-01T13:30:28.266Z,2.08
2022-09-01T13:35:44.972Z,6.43
2022-09-01T13:38:16.111Z,3.47
2022-09-01T13:40:47.304Z,1.65
2022-09-01T13:43:15.995Z,6.38
2022-09-01T13:45:45.017Z,4.95
2022-09-01T13:48:16.040Z,1.77
2022-09-01T13:53:34.040Z,1.90
2022-09-01T13:56:01.701Z,9.02
2022-09-01T13:58:29.267Z,3.42
2022-09-01T14:01:00.003Z,8.45
2022-09-01T14:05:55.264Z,6.40
2022-09-01T14:08:22.985Z,4.57
2022-09-01T14:10:53.144Z,4.18
2022-09-01T14:13:24.372Z,5.07
2022-09-01T14:15:53.393Z,6.32
2022-09-01T14:18:22.261Z,6.22
2022-09-01T14:20:51.626Z,1.65
2022-09-01T14:23:20.738Z,4.65
2022-09-01T14:25:51.966Z,3.13
2022-09-01T14:28:21.217Z,2.45
2022-09-01T14:33:18.655Z,4.43
2022-09-01T14:35:48.112Z,2.55
2022-09-01T14:38:16.606Z,1.65
2022-09-01T14:40:48.323Z,4.35
2022-09-01T14:43:16.055Z,2.47
2022-09-01T14:45:47.069Z,2.67
2022-09-01T14:48:17.317Z,2.83
2022-09-01T14:50:47.444Z,6.40
2022-09-01T14:53:15.755Z,2.70
2022-09-01T14:55:43.978Z,5.78
2022-09-01T14:58:11.698Z,4.60
2022-09-01T15:00:41.709Z,7.38
2022-09-01T15:03:09.832Z,10.65
2022-09-01T15:05:40.369Z,2.63
2022-09-01T15:08:21.602Z,4.15
2022-09-01T15:10:49.452Z,7.25
2022-09-01T15:13:17.088Z,2.72
2022-09-01T15:15:44.586Z,1.15
2022-09-01T15:18:12.225Z,9.45
2022-09-01T15:20:48.773Z,4.55
2022-09-01T15:23:21.371Z,1.88
2022-09-01T15:25:52.494Z,3.72
2022-09-01T15:28:20.977Z,1.58
2022-09-01T15:30:48.679Z,6.10
2022-09-01T15:33:16.475Z,2.10
2022-09-01T15:35:45.270Z,6.88
2022-09-01T15:38:17.459Z,11.60
2022-09-01T15:40:51.984Z,12.88
2022-09-01T15:43:26.375Z,7.43
2022-09-01T15:45:54.270Z,2.60
2022-09-01T15:48:21.690Z,6.70
2022-09-01T15:50:49.883Z,6.10
2022-09-01T15:53:18.967Z,9.30
2022-09-01T15:55:48.464Z,4.05
2022-09-01T15:58:18.139Z,5.57
2022-09-01T16:00:45.715Z,14.80
2022-09-01T16:03:13.404Z,5.68
2022-09-01T16:05:41.214Z,5.78
2022-09-01T16:08:09.838Z,7.35
2022-09-01T16:10:40.633Z,9.10
2022-09-01T16:13:08.635Z,11.15
2022-09-01T16:15:47.284Z,3.60
2022-09-01T16:18:42.345Z,4.75
2022-09-01T16:21:14.611Z,9.35
2022-09-01T16:23:49.015Z,2.78
2022-09-01T16:26:20.398Z,4.43
2022-09-01T16:28:51.860Z,7.80
2022-09-01T16:31:28.547Z,6.30
2022-09-01T16:34:02.009Z,3.63
2022-09-01T16:36:45.300Z,3.08
2022-09-01T16:39:27.895Z,5.75
2022-09-01T16:42:04.467Z,4.82
2022-09-01T16:44:53.254Z,5.15
2022-09-01T16:47:34.573Z,8.80
2022-09-01T16:50:05.438Z,5.85
2022-09-01T16:52:55.400Z,6.32
2022-09-01T16:55:38.594Z,12.68
2022-09-01T16:58:44.672Z,4.75
2022-09-01T17:01:32.119Z,8.32
2022-09-01T17:04:17.810Z,15.43
2022-09-01T17:07:03.458Z,3.08
2022-09-01T17:09:36.894Z,2.83
2022-09-01T17:12:23.192Z,6.90
2022-09-01T17:15:02.147Z,6.60
2022-09-01T17:17:54.069Z,4.15
2022-09-01T17:20:28.182Z,7.13
2022-09-01T17:23:00.576Z,5.15
2022-09-01T17:25:34.107Z,3.60
2022-09-01T17:28:08.485Z,4.38
2022-09-01T17:30:44.928Z,5.65
2022-09-01T17:33:19.374Z,3.22
2022-09-01T17:36:02.956Z,4.55
2022-09-01T17:38:48.115Z,2.70
2022-09-01T17:41:29.213Z,5.80
2022-09-01T17:46:38.147Z,6.65
2022-09-01T17:49:43.228Z,4.22
2022-09-01T17:52:22.897Z,2.13
2022-09-01T17:55:07.324Z,6.47
2022-09-01T17:57:34.783Z,2.63
2022-09-01T18:00:18.225Z,2.15
2022-09-01T18:02:58.594Z,4.80
2022-09-01T18:05:26.939Z,1.63
2022-09-01T18:08:07.473Z,9.27
2022-09-01T18:10:40.351Z,1.92
2022-09-01T18:13:30.662Z,7.05
2022-09-01T18:16:15.026Z,4.55
2022-09-01T18:18:46.315Z,3.70
2022-09-01T18:23:49.718Z,1.30
2022-09-01T18:26:24.596Z,5.70
2022-09-01T18:28:54.736Z,8.57
2022-09-01T18:31:34.519Z,8.05
2022-09-01T18:34:17.344Z,2.70
2022-09-01T18:37:10.881Z,7.05
2022-09-01T18:40:09.360Z,7.93
2022-09-01T18:43:03.594Z,9.02
2022-09-01T18:45:56.701Z,11.00
2022-09-01T18:48:47.848Z,3.10
2022-09-01T18:51:19.860Z,15.10
2022-09-01T18:54:00.756Z,5.30
2022-09-01T18:56:47.744Z,6.85
2022-09-01T18:59:15.164Z,8.70
2022-09-01T19:02:15.076Z,6.90
2022-09-01T19:04:45.971Z,4.68
2022-09-01T19:07:22.745Z,4.18
2022-09-01T19:10:02.558Z,6.13
2022-09-01T19:12:45.221Z,1.98
2022-09-01T19:15:27.281Z,3.38
2022-09-01T19:18:10.004Z,5.40
2022-09-01T19:20:43.502Z,9.27
2022-09-01T19:23:16.140Z,3.53
2022-09-01T19:25:43.883Z,5.22
2022-09-01T19:28:31.537Z,9.18
2022-09-01T19:31:29.159Z,6.80
2022-09-01T19:34:01.252Z,5.05
2022-09-01T19:36:53.649Z,7.05
2022-09-01T19:39:27.458Z,6.20
2022-09-01T19:42:06.119Z,3.35
2022-09-01T19:44:36.536Z,5.18
2022-09-01T19:47:11.871Z,6.60
2022-09-01T19:50:14.129Z,7.60
2022-09-01T19:53:04.857Z,8.25
2022-09-01T19:55:32.342Z,13.80
2022-09-01T19:58:06.241Z,2.35
2022-09-01T20:00:51.543Z,4.78
2022-09-01T20:03:40.643Z,3.80
2022-09-01T20:06:24.417Z,11.73
2022-09-01T20:09:28.861Z,7.32
2022-09-01T20:12:27.823Z,8.27
2022-09-01T20:15:11.893Z,2.05
2022-09-01T20:17:50.352Z,3.22
2022-09-01T20:20:23.286Z,10.45
2022-09-01T20:23:00.249Z,2.90
2022-09-01T20:25:37.189Z,7.90
2022-09-01T20:28:25.649Z,7.45
2022-09-01T20:31:01.195Z,6.55
2022-09-01T20:33:40.395Z,4.93
2022-09-01T20:36:41.285Z,8.93
2022-09-01T20:39:41.501Z,6.33
2022-09-01T20:42:15.848Z,8.48
2022-09-01T20:44:55.333Z,7.13
2022-09-01T20:47:26.931Z,9.23
2022-09-01T20:49:57.026Z,4.07
2022-09-01T20:52:24.473Z,8.52
2022-09-01T20:55:02.181Z,6.75
2022-09-01T20:58:00.452Z,6.88
2022-09-01T21:00:30.555Z,5.82
2022-09-01T21:03:34.348Z,6.72
2022-09-01T21:06:16.307Z,4.72
2022-09-01T21:08:43.792Z,9.13
2022-09-01T21:11:20.312Z,9.82
2022-09-01T21:14:16.048Z,9.85
2022-09-01T21:17:19.284Z,7.72
2022-09-01T21:19:49.708Z,8.95
2022-09-01T21:22:22.159Z,7.13
2022-09-01T21:24:50.602Z,7.60
2022-09-01T21:27:31.215Z,8.68
2022-09-01T21:30:01.613Z,6.00
2022-09-01T21:32:30.993Z,15.93
2022-09-01T21:34:59.280Z,8.45
2022-09-01T21:37:28.314Z,8.60
2022-09-01T21:39:57.122Z,10.82
2022-09-01T21:42:33.364Z,15.38
2022-09-01T21:45:04.664Z,7.10
2022-09-01T21:47:33.877Z,4.20
2022-09-01T21:50:01.337Z,8.00
2022-09-01T21:52:29.044Z,7.93
2022-09-01T21:54:56.484Z,8.60
2022-09-01T21:57:24.047Z,10.45
2022-09-01T21:59:51.682Z,9.15
2022-09-01T22:02:20.165Z,6.18
2022-09-01T22:04:48.877Z,9.65
2022-09-01T22:07:19.094Z,10.05
2022-09-01T22:09:47.745Z,7.95
2022-09-01T22:12:15.216Z,9.93
2022-09-01T22:14:42.666Z,9.52
2022-09-01T22:17:10.319Z,7.57
2022-09-01T22:19:37.825Z,7.63
2022-09-01T22:22:05.673Z,7.32
2022-09-01T22:24:33.141Z,5.43
2022-09-01T22:27:00.716Z,11.82
2022-09-01T22:29:28.165Z,11.68
2022-09-01T22:31:55.674Z,7.40
2022-09-01T22:34:23.173Z,5.30
2022-09-01T22:36:50.704Z,10.85
2022-09-01T22:39:18.902Z,4.70
2022-09-01T22:41:47.422Z,8.82
2022-09-01T22:44:14.860Z,6.47
2022-09-01T22:46:42.511Z,7.05
2022-09-01T22:49:10.732Z,10.93
2022-09-01T22:51:40.571Z,7.00
2022-09-01T22:54:08.932Z,5.75
2022-09-01T22:56:39.516Z,9.43
2022-09-01T22:59:11.685Z,8.57
2022-09-01T23:01:42.555Z,11.38
2022-09-01T23:04:12.516Z,12.75
2022-09-01T23:06:44.814Z,7.72
2022-09-01T23:09:13.111Z,9.38
2022-09-01T23:11:40.859Z,13.93
2022-09-01T23:14:08.295Z,12.75
2022-09-01T23:16:36.063Z,11.93
2022-09-01T23:19:04.683Z,9.10
2022-09-01T23:21:35.713Z,6.90
2022-09-01T23:24:04.771Z,8.48
2022-09-01T23:26:32.933Z,11.45
2022-09-01T23:29:00.489Z,12.90
2022-09-01T23:31:31.358Z,12.90
2022-09-01T23:33:59.132Z,7.00
2022-09-01T23:36:28.929Z,7.35
2022-09-01T23:38:57.011Z,8.45
2022-09-01T23:41:29.858Z,5.47
2022-09-01T23:43:59.167Z,5.68
2022-09-01T23:46:29.677Z,11.75
2022-09-01T23:48:57.564Z,9.23
2022-09-01T23:51:25.475Z,10.57
2022-09-01T23:53:54.177Z,11.63
2022-09-01T23:56:24.775Z,4.55
2022-09-01T23:58:52.628Z,6.13
